sensor_id;sensor_type;location;lat;lon;timestamp;pressure;altitude;pressure_sealevel;temperature;humidity
45941;BME280;31858;46.008;8.978;2022-08-23T00:04:33;94117.91;;;22.99;35.79
45941;BME280;31858;46.008;8.978;2022-08-23T00:14:37;94117.38;;;22.76;37.19
45941;BME280;31858;46.008;8.978;2022-08-23T00:24:42;94120.13;;;22.67;37.26
45941;BME280;31858;46.008;8.978;2022-08-23T00:34:43;94115.94;;;22.57;36.95
45941;BME280;31858;46.008;8.978;2022-08-23T00:44:46;94122.94;;;22.40;37.98
45941;BME280;31858;46.008;8.978;2022-08-23T00:55:06;94121.78;;;22.23;38.35
45941;BME280;31858;46.008;8.978;2022-08-23T01:05:10;94119.72;;;21.99;38.79
45941;BME280;31858;46.008;8.978;2022-08-23T01:15:16;94119.28;;;21.73;39.19
45941;BME280;31858;46.008;8.978;2022-08-23T01:25:22;94124.69;;;21.55;40.38
45941;BME280;31858;46.008;8.978;2022-08-23T01:35:30;94129.66;;;21.38;40.38
45941;BME280;31858;46.008;8.978;2022-08-23T01:45:36;94139.88;;;21.34;40.23
45941;BME280;31858;46.008;8.978;2022-08-23T01:55:39;94133.25;;;21.26;39.55
45941;BME280;31858;46.008;8.978;2022-08-23T02:05:43;94149.66;;;21.32;41.24
45941;BME280;31858;46.008;8.978;2022-08-23T02:15:46;94156.38;;;21.18;41.30
45941;BME280;31858;46.008;8.978;2022-08-23T02:25:52;94160.28;;;21.08;42.47
45941;BME280;31858;46.008;8.978;2022-08-23T02:35:54;94168.38;;;20.99;42.29
45941;BME280;31858;46.008;8.978;2022-08-23T02:45:57;94157.69;;;20.95;42.51
45941;BME280;31858;46.008;8.978;2022-08-23T02:55:59;94167.75;;;20.95;41.98
45941;BME280;31858;46.008;8.978;2022-08-23T03:06:02;94169.53;;;20.79;42.88
45941;BME280;31858;46.008;8.978;2022-08-23T03:16:04;94176.41;;;20.71;43.44
45941;BME280;31858;46.008;8.978;2022-08-23T03:26:10;94172.34;;;20.67;43.05
45941;BME280;31858;46.008;8.978;2022-08-23T03:36:12;94179.66;;;20.57;40.91
45941;BME280;31858;46.008;8.978;2022-08-23T03:46:15;94178.34;;;20.62;39.52
45941;BME280;31858;46.008;8.978;2022-08-23T03:56:24;94172.13;;;20.52;41.42
45941;BME280;31858;46.008;8.978;2022-08-23T04:06:28;94174.81;;;20.52;40.19
45941;BME280;31858;46.008;8.978;2022-08-23T04:16:32;94191.25;;;20.36;36.66
45941;BME280;31858;46.008;8.978;2022-08-23T04:26:38;94192.44;;;20.35;35.73
45941;BME280;31858;46.008;8.978;2022-08-23T04:36:41;94203.50;;;20.28;36.51
45941;BME280;31858;46.008;8.978;2022-08-23T04:46:44;94203.94;;;20.26;36.59
45941;BME280;31858;46.008;8.978;2022-08-23T04:56:47;94208.28;;;20.24;37.08
45941;BME280;31858;46.008;8.978;2022-08-23T05:06:51;94208.16;;;20.27;37.25
45941;BME280;31858;46.008;8.978;2022-08-23T05:16:52;94213.97;;;20.16;36.97
45941;BME280;31858;46.008;8.978;2022-08-23T05:26:55;94219.19;;;20.11;37.39
45941;BME280;31858;46.008;8.978;2022-08-23T05:36:57;94225.91;;;20.06;37.46
45941;BME280;31858;46.008;8.978;2022-08-23T05:47:00;94220.28;;;20.01;39.11
45941;BME280;31858;46.008;8.978;2022-08-23T05:57:01;94229.16;;;20.01;38.63
45941;BME280;31858;46.008;8.978;2022-08-23T06:07:04;94241.19;;;20.00;39.41
45941;BME280;31858;46.008;8.978;2022-08-23T06:17:06;94246.91;;;20.02;40.49
45941;BME280;31858;46.008;8.978;2022-08-23T06:27:09;94243.44;;;20.02;39.77
45941;BME280;31858;46.008;8.978;2022-08-23T06:37:13;94240.78;;;19.89;40.99
45941;BME280;31858;46.008;8.978;2022-08-23T06:47:16;94246.03;;;20.05;40.72
45941;BME280;31858;46.008;8.978;2022-08-23T06:57:18;94250.94;;;20.19;41.23
45941;BME280;31858;46.008;8.978;2022-08-23T07:07:21;94250.06;;;20.23;41.72
45941;BME280;31858;46.008;8.978;2022-08-23T07:17:23;94252.03;;;20.22;40.40
45941;BME280;31858;46.008;8.978;2022-08-23T07:27:25;94262.84;;;20.22;40.63
45941;BME280;31858;46.008;8.978;2022-08-23T07:37:27;94263.09;;;20.37;40.42
45941;BME280;31858;46.008;8.978;2022-08-23T07:47:31;94263.00;;;20.40;40.61
45941;BME280;31858;46.008;8.978;2022-08-23T07:57:33;94267.97;;;20.42;41.19
45941;BME280;31858;46.008;8.978;2022-08-23T08:07:36;94274.78;;;20.46;41.33
45941;BME280;31858;46.008;8.978;2022-08-23T08:17:37;94275.09;;;20.48;41.98
45941;BME280;31858;46.008;8.978;2022-08-23T08:27:41;94287.47;;;20.59;42.52
45941;BME280;31858;46.008;8.978;2022-08-23T08:37:43;94291.06;;;20.77;43.69
45941;BME280;31858;46.008;8.978;2022-08-23T08:47:49;94293.59;;;21.03;43.03
45941;BME280;31858;46.008;8.978;2022-08-23T08:57:52;94304.88;;;21.32;43.54
45941;BME280;31858;46.008;8.978;2022-08-23T09:08:09;94313.72;;;21.64;44.16
45941;BME280;31858;46.008;8.978;2022-08-23T09:18:14;94309.16;;;22.01;40.97
45941;BME280;31858;46.008;8.978;2022-08-23T09:28:18;94313.56;;;22.35;39.22
45941;BME280;31858;46.008;8.978;2022-08-23T09:38:20;94328.47;;;22.58;36.69
45941;BME280;31858;46.008;8.978;2022-08-23T09:48:38;94319.59;;;22.85;37.55
45941;BME280;31858;46.008;8.978;2022-08-23T09:58:42;94318.19;;;23.07;37.23
45941;BME280;31858;46.008;8.978;2022-08-23T10:08:56;94319.72;;;23.41;35.39
45941;BME280;31858;46.008;8.978;2022-08-23T10:19:07;94319.84;;;23.56;36.88
45941;BME280;31858;46.008;8.978;2022-08-23T10:29:15;94303.84;;;24.06;36.20
45941;BME280;31858;46.008;8.978;2022-08-23T10:39:43;94307.78;;;24.05;34.51
45941;BME280;31858;46.008;8.978;2022-08-23T10:49:51;94296.78;;;24.23;34.35
45941;BME280;31858;46.008;8.978;2022-08-23T10:59:53;94294.06;;;24.47;37.17
45941;BME280;31858;46.008;8.978;2022-08-23T11:10:08;94288.34;;;24.75;35.44
45941;BME280;31858;46.008;8.978;2022-08-23T11:20:12;94282.41;;;24.91;34.06
45941;BME280;31858;46.008;8.978;2022-08-23T11:30:44;94272.59;;;25.08;33.46
45941;BME280;31858;46.008;8.978;2022-08-23T11:41:02;94274.53;;;25.37;33.14
45941;BME280;31858;46.008;8.978;2022-08-23T11:51:23;94272.13;;;25.59;33.23
45941;BME280;31858;46.008;8.978;2022-08-23T12:01:29;94272.97;;;25.65;31.86
45941;BME280;31858;46.008;8.978;2022-08-23T12:22:12;94274.97;;;26.46;34.45
45941;BME280;31858;46.008;8.978;2022-08-23T12:32:18;94280.50;;;26.52;32.65
45941;BME280;31858;46.008;8.978;2022-08-23T12:42:26;94284.81;;;26.84;31.87
45941;BME280;31858;46.008;8.978;2022-08-23T12:52:30;94274.94;;;26.92;33.22
45941;BME280;31858;46.008;8.978;2022-08-23T13:02:34;94272.91;;;27.13;35.31
45941;BME280;31858;46.008;8.978;2022-08-23T13:12:37;94271.50;;;27.23;35.28
45941;BME280;31858;46.008;8.978;2022-08-23T13:22:58;94262.19;;;27.47;34.52
45941;BME280;31858;46.008;8.978;2022-08-23T13:33:19;94260.56;;;27.60;34.61
45941;BME280;31858;46.008;8.978;2022-08-23T13:43:27;94264.19;;;27.83;32.96
45941;BME280;31858;46.008;8.978;2022-08-23T13:53:30;94254.31;;;28.03;35.03
45941;BME280;31858;46.008;8.978;2022-08-23T14:03:33;94261.97;;;28.41;33.92
45941;BME280;31858;46.008;8.978;2022-08-23T14:13:35;94253.53;;;28.45;32.31
45941;BME280;31858;46.008;8.978;2022-08-23T14:23:38;94248.06;;;28.56;31.87
45941;BME280;31858;46.008;8.978;2022-08-23T14:33:39;94243.59;;;28.81;33.07
45941;BME280;31858;46.008;8.978;2022-08-23T14:43:43;94255.09;;;28.90;31.93
45941;BME280;31858;46.008;8.978;2022-08-23T14:53:45;94246.63;;;28.94;33.22
45941;BME280;31858;46.008;8.978;2022-08-23T15:03:48;94250.63;;;29.10;33.52
45941;BME280;31858;46.008;8.978;2022-08-23T15:13:50;94239.41;;;29.25;32.61
45941;BME280;31858;46.008;8.978;2022-08-23T15:23:53;94248.38;;;29.31;33.67
45941;BME280;31858;46.008;8.978;2022-08-23T15:33:55;94244.66;;;29.22;33.75
45941;BME280;31858;46.008;8.978;2022-08-23T15:43:58;94247.63;;;29.08;32.77
45941;BME280;31858;46.008;8.978;2022-08-23T15:54:00;94245.63;;;29.14;34.58
45941;BME280;31858;46.008;8.978;2022-08-23T16:04:03;94250.13;;;29.06;35.98
45941;BME280;31858;46.008;8.978;2022-08-23T16:14:05;94247.13;;;28.87;33.91
45941;BME280;31858;46.008;8.978;2022-08-23T16:24:08;94243.81;;;28.61;35.63
45941;BME280;31858;46.008;8.978;2022-08-23T16:34:11;94254.50;;;28.36;37.71
45941;BME280;31858;46.008;8.978;2022-08-23T16:44:15;94256.84;;;28.12;36.27
45941;BME280;31858;46.008;8.978;2022-08-23T16:54:17;94264.19;;;27.83;36.44
45941;BME280;31858;46.008;8.978;2022-08-23T17:04:21;94273.09;;;27.73;38.24
45941;BME280;31858;46.008;8.978;2022-08-23T17:14:24;94273.50;;;27.60;37.68
45941;BME280;31858;46.008;8.978;2022-08-23T17:24:27;94277.63;;;27.50;39.28
45941;BME280;31858;46.008;8.978;2022-08-23T17:34:29;94288.19;;;27.31;39.29
45941;BME280;31858;46.008;8.978;2022-08-23T17:44:32;94303.13;;;26.99;40.03
45941;BME280;31858;46.008;8.978;2022-08-23T17:54:34;94313.75;;;26.71;40.79
45941;BME280;31858;46.008;8.978;2022-08-23T18:04:37;94326.03;;;26.20;42.21
45941;BME280;31858;46.008;8.978;2022-08-23T18:14:39;94335.50;;;25.84;43.38
45941;BME280;31858;46.008;8.978;2022-08-23T18:24:42;94348.78;;;25.61;43.87
45941;BME280;31858;46.008;8.978;2022-08-23T18:34:43;94373.63;;;25.49;44.29
45941;BME280;31858;46.008;8.978;2022-08-23T18:44:46;94390.19;;;25.30;44.84
45941;BME280;31858;46.008;8.978;2022-08-23T18:54:48;94408.06;;;25.31;44.73
45941;BME280;31858;46.008;8.978;2022-08-23T19:04:51;94424.88;;;25.15;45.06
45941;BME280;31858;46.008;8.978;2022-08-23T19:14:53;94443.66;;;25.13;45.94
45941;BME280;31858;46.008;8.978;2022-08-23T19:24:56;94458.91;;;25.20;46.51
45941;BME280;31858;46.008;8.978;2022-08-23T19:34:58;94478.59;;;24.76;47.88
45941;BME280;31858;46.008;8.978;2022-08-23T19:45:01;94478.31;;;24.50;47.56
45941;BME280;31858;46.008;8.978;2022-08-23T19:55:05;94506.09;;;24.21;48.75
45941;BME280;31858;46.008;8.978;2022-08-23T20:05:08;94517.53;;;23.92;48.88
45941;BME280;31858;46.008;8.978;2022-08-23T20:15:11;94521.75;;;24.02;48.81
45941;BME280;31858;46.008;8.978;2022-08-23T20:25:14;94526.03;;;23.85;49.29
45941;BME280;31858;46.008;8.978;2022-08-23T20:35:16;94524.84;;;23.59;50.34
45941;BME280;31858;46.008;8.978;2022-08-23T20:45:19;94534.34;;;23.45;50.36
45941;BME280;31858;46.008;8.978;2022-08-23T20:55:20;94544.34;;;23.30;50.91
45941;BME280;31858;46.008;8.978;2022-08-23T21:05:24;94556.56;;;23.16;51.14
45941;BME280;31858;46.008;8.978;2022-08-23T21:15:26;94555.19;;;23.02;51.80
45941;BME280;31858;46.008;8.978;2022-08-23T21:25:29;94547.94;;;22.99;52.20
45941;BME280;31858;46.008;8.978;2022-08-23T21:35:31;94556.53;;;22.89;52.13
45941;BME280;31858;46.008;8.978;2022-08-23T21:45:34;94557.06;;;22.74;52.59
45941;BME280;31858;46.008;8.978;2022-08-23T21:55:36;94570.31;;;22.63;53.03
45941;BME280;31858;46.008;8.978;2022-08-23T22:05:41;94579.06;;;22.58;53.16
45941;BME280;31858;46.008;8.978;2022-08-23T22:15:43;94573.28;;;22.47;54.46
45941;BME280;31858;46.008;8.978;2022-08-23T22:25:46;94585.59;;;22.39;54.50
45941;BME280;31858;46.008;8.978;2022-08-23T22:35:48;94587.56;;;22.38;54.67
45941;BME280;31858;46.008;8.978;2022-08-23T22:45:53;94599.59;;;22.28;55.02
45941;BME280;31858;46.008;8.978;2022-08-23T22:55:55;94599.22;;;22.17;55.46
45941;BME280;31858;46.008;8.978;2022-08-23T23:05:58;94594.97;;;22.07;56.44
45941;BME280;31858;46.008;8.978;2022-08-23T23:16:01;94593.91;;;22.04;56.99
45941;BME280;31858;46.008;8.978;2022-08-23T23:26:05;94596.22;;;21.93;57.62
45941;BME280;31858;46.008;8.978;2022-08-23T23:36:08;94597.72;;;21.94;57.28
45941;BME280;31858;46.008;8.978;2022-08-23T23:46:15;94594.06;;;21.88;56.40
45941;BME280;31858;46.008;8.978;2022-08-23T23:56:17;94588.13;;;21.59;56.85
